Portada
METAR-TAF:

METAR-TAF

Aeroports :

Montería, Colòmbia

latitud: 08-49N, longitud: 075-51W, altitud: 20 m

Observació

L'informe es va fer fa 5 hores i 58 minuts, a les 04:00 UTC
Vent 2 kt amb direcció variable
Temperatura 27°C
Humitat 94%
Pressió 1009 hPa
Visibilitat 10 km o més
Escasses núvols a una alçada de 1500 ft

METAR: SKMR 090400Z VRB02KT 9999 FEW015 27/26 Q1009 RMK A2981

Hora: 04:58 (09:58 UTC)


TAF: manca

Observacions i pronòstics meteorològics de més de 4000 aeroports (METAR i TAF).

Les estacions disponibles són els punts grocs i vermells al mapa.

Posi el ratolí al punt desitjat per veure el nom de l'estació.

Feu clic per veure les observacions i els pronòstics meteorològics.

Per canviar el mapa: feu clic els botons verds amb una creu de color negre per apropar; al botó verd amb un guió per allunyar la imatge; o en les fletxes verdes per a mapes adjacents.


METAR-TAF: